EST,Max TemperatureF,Mean TemperatureF,Min TemperatureF,Max Dew PointF,MeanDew PointF,Min DewpointF,Max Humidity, Mean Humidity, Min Humidity, Max Sea Level PressureIn, Mean Sea Level PressureIn, Min Sea Level PressureIn, Max VisibilityMiles, Mean VisibilityMiles, Min VisibilityMiles, Max Wind SpeedMPH, Mean Wind SpeedMPH, Max Gust SpeedMPH,PrecipitationIn, CloudCover, Events, WindDirDegrees
2013-1-1,19,14,10,16,10,5,86,81,71,30.14,30.02,29.89,10,3,1,22,13,30,0.00,8,Snow,278
2013-1-2,21,19,17,17,15,13,92,83,74,30.04,29.99,29.93,10,9,5,12,6,,0.00,8,Snow,200
2013-1-3,24,20,17,19,15,10,93,78,60,30.05,29.95,29.76,10,8,2,28,13,36,0.00,5,Snow,278
2013-1-4,30,27,24,27,21,17,89,80,69,30.11,29.82,29.70,10,5,2,40,32,51,0.03,6,Snow,288
2013-1-5,30,26,21,27,19,16,93,79,64,30.13,29.98,29.80,10,10,3,12,4,,0.00,4,Snow,88
2013-1-6,28,24,19,27,18,13,93,83,74,30.18,30.00,29.80,10,8,2,16,11,25,0.00,8,Snow,7
2013-1-7,39,28,18,27,18,10,85,64,50,30.10,29.81,29.68,10,10,10,26,13,36,0.00,1,,228
2013-1-8,34,29,24,27,24,20,86,75,64,30.04,29.91,29.70,10,10,9,23,13,32,0.00,4,,197
2013-1-9,35,32,28,28,24,21,86,75,64,30.39,29.87,29.66,10,6,0,39,24,58,0.04,8,Fog-Snow,275
2013-1-10,42,32,21,29,18,12,92,61,29,30.39,30.24,29.90,10,10,10,18,7,25,0.00,1,,166
2013-1-11,37,35,33,37,35,31,100,99,85,29.86,29.61,29.45,10,2,0,9,6,,0.17,8,Fog-Rain,135
2013-1-12,42,30,19,40,27,14,100,87,73,29.92,29.61,29.31,10,7,0,31,11,40,0.00,8,Fog-Rain-Snow,232
2013-1-13,18,16,14,14,12,10,88,84,78,30.02,29.92,29.87,8,2,0,13,8,20,0.08,8,Fog-Snow,305
2013-1-14,16,12,8,12,9,3,88,81,70,30.30,30.16,29.97,10,4,0,18,11,25,0.02,8,Fog-Snow,260
2013-1-15,21,14,8,11,6,1,92,73,48,30.30,30.13,29.83,10,6,1,21,8,30,0.06,6,Snow,218
2013-1-16,28,16,3,25,14,-5,93,76,60,30.11,29.63,29.42,10,6,1,29,17,38,0.01,7,Rain-Snow,276
2013-1-17,9,6,3,1,0,-4,85,77,67,30.30,30.19,30.12,10,2,0,28,15,37,0.01,8,Fog-Snow,307
2013-1-18,15,10,5,12,8,0,93,85,67,30.29,29.92,29.72,10,3,0,16,7,,0.13,8,Fog-Snow,164
2013-1-19,28,17,6,27,17,3,100,90,84,29.79,29.59,29.39,10,3,0,36,10,44,0.12,8,Fog-Snow,276
2013-1-20,6,4,1,3,-1,-6,92,83,66,30.19,30.05,29.74,7,1,0,30,17,40,0.12,8,Fog-Snow,304
2013-1-21,3,-3,-9,-1,-10,-15,85,78,66,30.17,30.01,29.92,4,1,0,21,15,30,0.00,8,Fog-Snow,307
2013-1-22,1,-4,-9,-2,-9,-15,92,78,71,30.27,30.14,30.06,5,1,0,17,11,22,0.00,8,Fog-Snow,295
2013-1-23,7,2,-2,2,-3,-6,88,82,72,30.48,30.12,29.95,4,1,0,20,9,25,0.00,8,Fog-Snow,291
2013-1-24,5,-2,-8,-1,-5,-11,87,80,72,30.68,30.52,30.35,10,5,1,12,7,,0.00,8,Snow,315
2013-1-25,18,12,5,16,7,0,93,85,73,30.32,30.01,29.85,10,3,0,15,7,22,0.00,8,Fog-Snow,212
2013-1-26,19,16,14,16,12,9,93,81,68,30.37,30.23,30.03,10,6,1,18,10,23,0.00,8,Snow,5
2013-1-27,28,22,17,28,18,10,100,79,66,30.26,30.09,29.91,10,8,1,13,8,,0.02,5,Snow,150
2013-1-28,33,30,28,30,29,28,100,93,85,29.94,29.87,29.80,10,6,0,12,5,,0.42,8,Fog-Snow,104
2013-1-29,34,32,28,34,31,25,100,96,82,29.83,29.56,29.45,10,5,0,22,8,29,0.09,8,Fog-Rain,23
2013-1-30,28,19,10,25,12,7,88,83,71,29.62,29.51,29.43,10,3,0,24,15,34,0.02,8,Fog-Snow,358
2013-1-31,10,8,6,7,3,1,85,80,73,29.99,29.69,29.44,3,1,0,20,14,28,0.03,8,Fog-Snow,337